sensor_id;sensor_type;location;lat;lon;timestamp;temperature;humidity
947;DHT22;460;48.734;9.152;2022-10-19T00:01:28;13.00;99.90
947;DHT22;460;48.734;9.152;2022-10-19T00:03:55;13.00;99.90
947;DHT22;460;48.734;9.152;2022-10-19T00:06:25;12.90;99.90
947;DHT22;460;48.734;9.152;2022-10-19T00:08:53;12.90;99.90
947;DHT22;460;48.734;9.152;2022-10-19T00:11:20;13.00;99.90
947;DHT22;460;48.734;9.152;2022-10-19T00:13:50;13.00;99.90
947;DHT22;460;48.734;9.152;2022-10-19T00:16:17;13.00;99.90
947;DHT22;460;48.734;9.152;2022-10-19T00:18:44;12.90;99.90
947;DHT22;460;48.734;9.152;2022-10-19T00:21:13;12.80;99.90
947;DHT22;460;48.734;9.152;2022-10-19T00:23:40;12.80;99.90
947;DHT22;460;48.734;9.152;2022-10-19T00:26:07;13.00;99.90
947;DHT22;460;48.734;9.152;2022-10-19T00:28:35;12.80;99.90
947;DHT22;460;48.734;9.152;2022-10-19T00:31:04;13.30;99.90
947;DHT22;460;48.734;9.152;2022-10-19T00:33:31;12.90;99.90
947;DHT22;460;48.734;9.152;2022-10-19T00:35:58;12.90;99.90
947;DHT22;460;48.734;9.152;2022-10-19T00:38:25;12.90;99.90
947;DHT22;460;48.734;9.152;2022-10-19T00:40:52;13.00;99.90
947;DHT22;460;48.734;9.152;2022-10-19T00:43:20;13.00;99.90
947;DHT22;460;48.734;9.152;2022-10-19T00:48:18;12.90;99.90
947;DHT22;460;48.734;9.152;2022-10-19T00:50:47;12.90;99.90
947;DHT22;460;48.734;9.152;2022-10-19T00:53:14;13.20;99.90
947;DHT22;460;48.734;9.152;2022-10-19T00:55:42;12.90;99.90
947;DHT22;460;48.734;9.152;2022-10-19T00:58:09;12.90;99.90
947;DHT22;460;48.734;9.152;2022-10-19T01:00:36;12.80;99.90
947;DHT22;460;48.734;9.152;2022-10-19T01:03:04;12.80;99.90
947;DHT22;460;48.734;9.152;2022-10-19T01:05:34;12.90;99.90
947;DHT22;460;48.734;9.152;2022-10-19T01:08:01;12.90;99.90
947;DHT22;460;48.734;9.152;2022-10-19T01:10:34;12.90;99.90
947;DHT22;460;48.734;9.152;2022-10-19T01:13:17;12.90;99.90
947;DHT22;460;48.734;9.152;2022-10-19T01:15:53;12.80;99.90
947;DHT22;460;48.734;9.152;2022-10-19T01:18:28;12.90;99.90
947;DHT22;460;48.734;9.152;2022-10-19T01:21:23;12.90;99.90
947;DHT22;460;48.734;9.152;2022-10-19T01:24:24;13.20;99.90
947;DHT22;460;48.734;9.152;2022-10-19T01:27:18;13.00;99.90
947;DHT22;460;48.734;9.152;2022-10-19T01:32:51;13.20;99.90
947;DHT22;460;48.734;9.152;2022-10-19T01:35:26;13.20;99.90
947;DHT22;460;48.734;9.152;2022-10-19T01:38:06;13.20;99.90
947;DHT22;460;48.734;9.152;2022-10-19T01:40:41;13.40;99.90
947;DHT22;460;48.734;9.152;2022-10-19T01:43:15;13.30;99.90
947;DHT22;460;48.734;9.152;2022-10-19T01:45:49;13.30;99.90
947;DHT22;460;48.734;9.152;2022-10-19T01:48:21;13.40;99.90
947;DHT22;460;48.734;9.152;2022-10-19T01:50:53;13.40;99.90
947;DHT22;460;48.734;9.152;2022-10-19T01:53:23;13.40;99.90
947;DHT22;460;48.734;9.152;2022-10-19T01:55:53;13.50;99.90
947;DHT22;460;48.734;9.152;2022-10-19T01:58:25;13.50;99.90
947;DHT22;460;48.734;9.152;2022-10-19T02:00:56;13.50;99.90
947;DHT22;460;48.734;9.152;2022-10-19T02:03:24;13.50;99.90
947;DHT22;460;48.734;9.152;2022-10-19T02:05:53;13.60;99.90
947;DHT22;460;48.734;9.152;2022-10-19T02:08:24;13.60;99.90
947;DHT22;460;48.734;9.152;2022-10-19T02:10:53;13.60;99.90
947;DHT22;460;48.734;9.152;2022-10-19T02:13:23;13.60;99.90
947;DHT22;460;48.734;9.152;2022-10-19T02:15:51;13.70;99.90
947;DHT22;460;48.734;9.152;2022-10-19T02:18:25;13.60;99.90
947;DHT22;460;48.734;9.152;2022-10-19T02:20:54;13.60;99.90
947;DHT22;460;48.734;9.152;2022-10-19T02:23:23;13.60;99.90
947;DHT22;460;48.734;9.152;2022-10-19T02:25:51;13.70;99.90
947;DHT22;460;48.734;9.152;2022-10-19T02:28:19;13.70;99.90
947;DHT22;460;48.734;9.152;2022-10-19T02:30:46;13.70;99.90
947;DHT22;460;48.734;9.152;2022-10-19T02:33:13;13.70;99.90
947;DHT22;460;48.734;9.152;2022-10-19T02:35:42;13.70;99.90
947;DHT22;460;48.734;9.152;2022-10-19T02:38:15;13.80;99.90
947;DHT22;460;48.734;9.152;2022-10-19T02:40:49;13.80;99.90
947;DHT22;460;48.734;9.152;2022-10-19T02:43:18;13.80;99.90
947;DHT22;460;48.734;9.152;2022-10-19T02:45:51;13.70;99.90
947;DHT22;460;48.734;9.152;2022-10-19T02:48:22;14.50;99.90
947;DHT22;460;48.734;9.152;2022-10-19T02:50:51;13.70;99.90
947;DHT22;460;48.734;9.152;2022-10-19T02:53:19;13.70;99.90
947;DHT22;460;48.734;9.152;2022-10-19T02:55:47;13.80;99.90
947;DHT22;460;48.734;9.152;2022-10-19T02:58:14;13.80;99.90
947;DHT22;460;48.734;9.152;2022-10-19T03:00:42;13.80;99.90
947;DHT22;460;48.734;9.152;2022-10-19T03:03:09;13.70;99.90
947;DHT22;460;48.734;9.152;2022-10-19T03:05:36;13.70;99.90
947;DHT22;460;48.734;9.152;2022-10-19T03:08:04;13.70;99.90
947;DHT22;460;48.734;9.152;2022-10-19T03:12:58;13.80;99.90
947;DHT22;460;48.734;9.152;2022-10-19T03:15:25;13.80;99.90
947;DHT22;460;48.734;9.152;2022-10-19T03:17:54;13.80;99.90
947;DHT22;460;48.734;9.152;2022-10-19T03:20:21;13.80;99.90
947;DHT22;460;48.734;9.152;2022-10-19T03:22:49;13.90;99.90
947;DHT22;460;48.734;9.152;2022-10-19T03:25:17;13.80;99.90
947;DHT22;460;48.734;9.152;2022-10-19T03:27:44;13.90;99.90
947;DHT22;460;48.734;9.152;2022-10-19T03:30:11;13.90;99.90
947;DHT22;460;48.734;9.152;2022-10-19T03:32:38;13.90;99.90
947;DHT22;460;48.734;9.152;2022-10-19T03:35:05;13.90;99.90
947;DHT22;460;48.734;9.152;2022-10-19T03:37:32;13.80;99.90
947;DHT22;460;48.734;9.152;2022-10-19T03:39:59;13.90;99.90
947;DHT22;460;48.734;9.152;2022-10-19T03:42:27;13.90;99.90
947;DHT22;460;48.734;9.152;2022-10-19T03:44:54;13.90;99.90
947;DHT22;460;48.734;9.152;2022-10-19T03:47:21;13.90;99.90
947;DHT22;460;48.734;9.152;2022-10-19T03:49:48;13.90;99.90
947;DHT22;460;48.734;9.152;2022-10-19T03:52:16;14.00;99.90
947;DHT22;460;48.734;9.152;2022-10-19T03:54:43;14.00;99.90
947;DHT22;460;48.734;9.152;2022-10-19T03:57:10;14.00;99.90
947;DHT22;460;48.734;9.152;2022-10-19T03:59:41;14.10;99.90
947;DHT22;460;48.734;9.152;2022-10-19T04:02:08;14.00;99.90
947;DHT22;460;48.734;9.152;2022-10-19T04:04:35;14.00;99.90
947;DHT22;460;48.734;9.152;2022-10-19T04:07:02;13.90;99.90
947;DHT22;460;48.734;9.152;2022-10-19T04:09:28;14.00;99.90
947;DHT22;460;48.734;9.152;2022-10-19T04:11:55;14.80;99.90
947;DHT22;460;48.734;9.152;2022-10-19T04:14:22;14.00;99.90
947;DHT22;460;48.734;9.152;2022-10-19T04:16:51;14.10;99.90
947;DHT22;460;48.734;9.152;2022-10-19T04:19:18;14.00;99.90
947;DHT22;460;48.734;9.152;2022-10-19T04:21:47;14.00;99.90
947;DHT22;460;48.734;9.152;2022-10-19T04:24:15;14.00;99.90
947;DHT22;460;48.734;9.152;2022-10-19T04:26:44;14.10;99.90
947;DHT22;460;48.734;9.152;2022-10-19T04:29:12;14.10;99.90
947;DHT22;460;48.734;9.152;2022-10-19T04:31:39;14.30;99.90
947;DHT22;460;48.734;9.152;2022-10-19T04:34:07;14.10;99.90
947;DHT22;460;48.734;9.152;2022-10-19T04:36:34;14.20;99.90
947;DHT22;460;48.734;9.152;2022-10-19T04:39:01;14.20;99.90
947;DHT22;460;48.734;9.152;2022-10-19T04:41:28;14.20;99.90
947;DHT22;460;48.734;9.152;2022-10-19T04:43:56;14.20;99.90
947;DHT22;460;48.734;9.152;2022-10-19T04:46:24;14.20;99.90
947;DHT22;460;48.734;9.152;2022-10-19T04:48:52;14.30;99.90
947;DHT22;460;48.734;9.152;2022-10-19T04:51:21;14.20;99.90
947;DHT22;460;48.734;9.152;2022-10-19T04:53:48;14.20;99.90
947;DHT22;460;48.734;9.152;2022-10-19T04:56:17;14.20;99.90
947;DHT22;460;48.734;9.152;2022-10-19T04:58:44;14.20;99.90
947;DHT22;460;48.734;9.152;2022-10-19T05:01:13;14.20;99.90
947;DHT22;460;48.734;9.152;2022-10-19T05:03:40;14.30;99.90
947;DHT22;460;48.734;9.152;2022-10-19T05:06:08;14.20;99.90
947;DHT22;460;48.734;9.152;2022-10-19T05:08:36;14.30;99.90
947;DHT22;460;48.734;9.152;2022-10-19T05:11:06;14.40;99.90
947;DHT22;460;48.734;9.152;2022-10-19T05:13:34;14.20;99.90
947;DHT22;460;48.734;9.152;2022-10-19T05:16:03;14.30;99.90
947;DHT22;460;48.734;9.152;2022-10-19T05:18:30;14.30;99.90
947;DHT22;460;48.734;9.152;2022-10-19T05:21:02;14.20;99.90
947;DHT22;460;48.734;9.152;2022-10-19T05:23:29;14.30;99.90
947;DHT22;460;48.734;9.152;2022-10-19T05:26:01;14.30;99.90
947;DHT22;460;48.734;9.152;2022-10-19T05:28:28;14.30;99.90
947;DHT22;460;48.734;9.152;2022-10-19T05:31:03;14.30;99.90
947;DHT22;460;48.734;9.152;2022-10-19T05:33:29;14.30;99.90
947;DHT22;460;48.734;9.152;2022-10-19T05:35:56;14.30;99.90
947;DHT22;460;48.734;9.152;2022-10-19T05:40:50;14.30;99.90
947;DHT22;460;48.734;9.152;2022-10-19T05:43:18;14.30;99.90
947;DHT22;460;48.734;9.152;2022-10-19T05:45:45;14.60;99.90
947;DHT22;460;48.734;9.152;2022-10-19T05:48:12;14.30;99.90
947;DHT22;460;48.734;9.152;2022-10-19T05:50:39;14.30;99.90
947;DHT22;460;48.734;9.152;2022-10-19T05:53:06;14.20;99.90
947;DHT22;460;48.734;9.152;2022-10-19T05:55:33;14.30;99.90
947;DHT22;460;48.734;9.152;2022-10-19T05:58:01;14.20;99.90
947;DHT22;460;48.734;9.152;2022-10-19T06:00:29;14.20;99.90
947;DHT22;460;48.734;9.152;2022-10-19T06:02:56;14.30;99.90
947;DHT22;460;48.734;9.152;2022-10-19T06:05:23;14.20;99.90
947;DHT22;460;48.734;9.152;2022-10-19T06:07:49;14.20;99.90
947;DHT22;460;48.734;9.152;2022-10-19T06:10:16;14.20;99.90
947;DHT22;460;48.734;9.152;2022-10-19T06:12:45;14.20;99.90
947;DHT22;460;48.734;9.152;2022-10-19T06:15:12;14.20;99.90
947;DHT22;460;48.734;9.152;2022-10-19T06:17:40;14.20;99.90
947;DHT22;460;48.734;9.152;2022-10-19T06:20:08;14.20;99.90
947;DHT22;460;48.734;9.152;2022-10-19T06:22:35;14.20;99.90
947;DHT22;460;48.734;9.152;2022-10-19T06:25:02;14.20;99.90
947;DHT22;460;48.734;9.152;2022-10-19T06:27:30;14.20;99.90
947;DHT22;460;48.734;9.152;2022-10-19T06:29:57;14.20;99.90
947;DHT22;460;48.734;9.152;2022-10-19T06:32:24;14.20;99.90
947;DHT22;460;48.734;9.152;2022-10-19T06:34:54;14.20;99.90
947;DHT22;460;48.734;9.152;2022-10-19T06:37:21;14.20;99.90
947;DHT22;460;48.734;9.152;2022-10-19T06:39:47;14.20;99.90
947;DHT22;460;48.734;9.152;2022-10-19T06:42:14;14.20;99.90
947;DHT22;460;48.734;9.152;2022-10-19T06:44:41;14.20;99.90
947;DHT22;460;48.734;9.152;2022-10-19T06:47:08;14.20;99.90
947;DHT22;460;48.734;9.152;2022-10-19T06:52:03;14.20;99.90
947;DHT22;460;48.734;9.152;2022-10-19T06:54:32;14.10;99.90
947;DHT22;460;48.734;9.152;2022-10-19T06:56:59;14.20;99.90
947;DHT22;460;48.734;9.152;2022-10-19T06:59:26;14.40;99.90
947;DHT22;460;48.734;9.152;2022-10-19T07:01:52;14.20;99.90
947;DHT22;460;48.734;9.152;2022-10-19T07:04:19;14.20;99.90
947;DHT22;460;48.734;9.152;2022-10-19T07:06:46;14.20;99.90
947;DHT22;460;48.734;9.152;2022-10-19T07:09:14;14.30;99.90
947;DHT22;460;48.734;9.152;2022-10-19T07:11:43;14.30;99.90
947;DHT22;460;48.734;9.152;2022-10-19T07:14:10;14.30;99.90
947;DHT22;460;48.734;9.152;2022-10-19T07:16:37;14.30;99.90
947;DHT22;460;48.734;9.152;2022-10-19T07:19:04;14.30;99.90
947;DHT22;460;48.734;9.152;2022-10-19T07:21:31;14.30;99.90
947;DHT22;460;48.734;9.152;2022-10-19T07:23:57;14.30;99.90
947;DHT22;460;48.734;9.152;2022-10-19T07:26:26;14.30;99.90
947;DHT22;460;48.734;9.152;2022-10-19T07:28:55;14.30;99.90
947;DHT22;460;48.734;9.152;2022-10-19T07:31:23;14.30;99.90
947;DHT22;460;48.734;9.152;2022-10-19T07:33:51;14.30;99.90
947;DHT22;460;48.734;9.152;2022-10-19T07:36:19;14.40;99.90
947;DHT22;460;48.734;9.152;2022-10-19T07:38:46;14.30;99.90
947;DHT22;460;48.734;9.152;2022-10-19T07:41:15;14.30;99.90
947;DHT22;460;48.734;9.152;2022-10-19T07:43:44;14.30;99.90
947;DHT22;460;48.734;9.152;2022-10-19T07:46:13;15.00;99.90
947;DHT22;460;48.734;9.152;2022-10-19T07:48:40;14.40;99.90
947;DHT22;460;48.734;9.152;2022-10-19T07:51:09;14.40;99.90
947;DHT22;460;48.734;9.152;2022-10-19T07:53:37;14.40;99.90
947;DHT22;460;48.734;9.152;2022-10-19T07:56:05;14.40;99.90
947;DHT22;460;48.734;9.152;2022-10-19T07:58:33;14.40;99.90
947;DHT22;460;48.734;9.152;2022-10-19T08:01:04;14.40;99.90
947;DHT22;460;48.734;9.152;2022-10-19T08:03:31;14.40;99.90
947;DHT22;460;48.734;9.152;2022-10-19T08:06:01;14.70;99.90
947;DHT22;460;48.734;9.152;2022-10-19T08:08:29;14.50;99.90
947;DHT22;460;48.734;9.152;2022-10-19T08:10:56;14.50;99.90
947;DHT22;460;48.734;9.152;2022-10-19T08:13:23;14.50;99.90
947;DHT22;460;48.734;9.152;2022-10-19T08:18:19;14.60;99.90
947;DHT22;460;48.734;9.152;2022-10-19T08:20:47;14.60;99.90
947;DHT22;460;48.734;9.152;2022-10-19T08:23:14;14.60;99.90
947;DHT22;460;48.734;9.152;2022-10-19T08:25:41;14.60;99.90
947;DHT22;460;48.734;9.152;2022-10-19T08:30:35;14.80;99.90
947;DHT22;460;48.734;9.152;2022-10-19T08:33:03;14.70;99.90
947;DHT22;460;48.734;9.152;2022-10-19T08:35:33;14.70;99.90
947;DHT22;460;48.734;9.152;2022-10-19T08:38:00;14.70;99.90
947;DHT22;460;48.734;9.152;2022-10-19T08:40:29;14.80;99.90
947;DHT22;460;48.734;9.152;2022-10-19T08:43:01;14.80;99.90
947;DHT22;460;48.734;9.152;2022-10-19T08:45:40;14.80;99.90
947;DHT22;460;48.734;9.152;2022-10-19T08:48:24;14.80;99.90
947;DHT22;460;48.734;9.152;2022-10-19T08:50:54;14.80;99.90
947;DHT22;460;48.734;9.152;2022-10-19T08:53:30;14.80;99.90
947;DHT22;460;48.734;9.152;2022-10-19T08:56:14;14.80;99.90
947;DHT22;460;48.734;9.152;2022-10-19T08:58:56;14.80;99.90
947;DHT22;460;48.734;9.152;2022-10-19T09:01:35;14.80;99.90
947;DHT22;460;48.734;9.152;2022-10-19T09:04:06;14.90;99.90
947;DHT22;460;48.734;9.152;2022-10-19T09:06:40;14.90;99.90
947;DHT22;460;48.734;9.152;2022-10-19T09:09:11;14.90;99.90
947;DHT22;460;48.734;9.152;2022-10-19T09:11:43;15.60;99.90
947;DHT22;460;48.734;9.152;2022-10-19T09:14:15;14.90;99.90
947;DHT22;460;48.734;9.152;2022-10-19T09:16:43;14.90;99.90
947;DHT22;460;48.734;9.152;2022-10-19T09:19:17;14.90;99.90
947;DHT22;460;48.734;9.152;2022-10-19T09:21:51;15.00;99.90
947;DHT22;460;48.734;9.152;2022-10-19T09:24:28;14.90;99.90
947;DHT22;460;48.734;9.152;2022-10-19T09:26:57;14.90;99.90
947;DHT22;460;48.734;9.152;2022-10-19T09:29:28;15.00;99.90
947;DHT22;460;48.734;9.152;2022-10-19T09:31:58;14.90;99.90
947;DHT22;460;48.734;9.152;2022-10-19T09:34:30;14.60;99.90
947;DHT22;460;48.734;9.152;2022-10-19T09:36:59;15.00;99.90
947;DHT22;460;48.734;9.152;2022-10-19T09:39:28;14.90;99.90
947;DHT22;460;48.734;9.152;2022-10-19T09:41:57;15.00;99.90
947;DHT22;460;48.734;9.152;2022-10-19T09:44:26;15.10;99.90
947;DHT22;460;48.734;9.152;2022-10-19T09:47:00;15.00;99.90
947;DHT22;460;48.734;9.152;2022-10-19T09:49:39;15.00;99.90
947;DHT22;460;48.734;9.152;2022-10-19T09:52:22;14.90;99.90
947;DHT22;460;48.734;9.152;2022-10-19T09:54:58;15.00;99.90
947;DHT22;460;48.734;9.152;2022-10-19T09:57:26;15.00;99.90
947;DHT22;460;48.734;9.152;2022-10-19T09:59:54;15.00;99.90
947;DHT22;460;48.734;9.152;2022-10-19T10:02:28;15.00;99.90
947;DHT22;460;48.734;9.152;2022-10-19T10:04:57;15.00;99.90
947;DHT22;460;48.734;9.152;2022-10-19T10:07:35;15.00;99.90
947;DHT22;460;48.734;9.152;2022-10-19T10:10:09;15.00;99.90
947;DHT22;460;48.734;9.152;2022-10-19T10:12:38;15.00;99.90
947;DHT22;460;48.734;9.152;2022-10-19T10:15:06;14.90;99.90
947;DHT22;460;48.734;9.152;2022-10-19T10:17:33;15.00;99.90
947;DHT22;460;48.734;9.152;2022-10-19T10:20:17;15.00;99.90
947;DHT22;460;48.734;9.152;2022-10-19T10:22:54;15.10;99.90
947;DHT22;460;48.734;9.152;2022-10-19T10:25:28;15.00;99.90
947;DHT22;460;48.734;9.152;2022-10-19T10:27:59;15.20;99.90
947;DHT22;460;48.734;9.152;2022-10-19T10:30:29;15.20;99.90
947;DHT22;460;48.734;9.152;2022-10-19T10:32:58;15.20;99.90
947;DHT22;460;48.734;9.152;2022-10-19T10:35:30;15.30;99.90
947;DHT22;460;48.734;9.152;2022-10-19T10:38:07;15.30;99.90
947;DHT22;460;48.734;9.152;2022-10-19T10:40:35;15.10;99.90
947;DHT22;460;48.734;9.152;2022-10-19T10:43:05;15.20;99.90
947;DHT22;460;48.734;9.152;2022-10-19T10:45:41;15.20;99.90
947;DHT22;460;48.734;9.152;2022-10-19T10:48:18;15.30;99.90
947;DHT22;460;48.734;9.152;2022-10-19T10:56:21;15.30;99.90
947;DHT22;460;48.734;9.152;2022-10-19T10:58:54;15.40;99.90
947;DHT22;460;48.734;9.152;2022-10-19T11:01:23;15.20;99.90
947;DHT22;460;48.734;9.152;2022-10-19T11:03:56;15.30;99.90
947;DHT22;460;48.734;9.152;2022-10-19T11:06:25;15.30;99.90
947;DHT22;460;48.734;9.152;2022-10-19T11:09:01;15.30;99.90
947;DHT22;460;48.734;9.152;2022-10-19T11:11:34;15.20;99.90
947;DHT22;460;48.734;9.152;2022-10-19T11:14:24;15.30;99.90
947;DHT22;460;48.734;9.152;2022-10-19T11:16:57;15.40;99.90
947;DHT22;460;48.734;9.152;2022-10-19T11:19:30;15.30;99.90
947;DHT22;460;48.734;9.152;2022-10-19T11:22:06;15.40;99.90
947;DHT22;460;48.734;9.152;2022-10-19T11:24:43;15.50;99.90
947;DHT22;460;48.734;9.152;2022-10-19T11:27:20;15.40;99.90
947;DHT22;460;48.734;9.152;2022-10-19T11:30:01;15.50;99.90
947;DHT22;460;48.734;9.152;2022-10-19T11:32:34;15.50;99.90
947;DHT22;460;48.734;9.152;2022-10-19T11:35:14;15.60;99.90
947;DHT22;460;48.734;9.152;2022-10-19T11:37:46;15.60;99.90
947;DHT22;460;48.734;9.152;2022-10-19T11:40:20;15.70;99.90
947;DHT22;460;48.734;9.152;2022-10-19T11:42:59;15.70;99.90
947;DHT22;460;48.734;9.152;2022-10-19T11:45:36;15.90;99.90
947;DHT22;460;48.734;9.152;2022-10-19T11:48:26;15.80;99.90
947;DHT22;460;48.734;9.152;2022-10-19T11:51:01;15.80;99.90
947;DHT22;460;48.734;9.152;2022-10-19T11:53:38;15.90;99.90
947;DHT22;460;48.734;9.152;2022-10-19T11:56:13;15.90;99.90
947;DHT22;460;48.734;9.152;2022-10-19T11:58:51;16.00;99.90
947;DHT22;460;48.734;9.152;2022-10-19T12:01:29;16.00;99.90
947;DHT22;460;48.734;9.152;2022-10-19T12:04:18;15.90;99.90
947;DHT22;460;48.734;9.152;2022-10-19T12:06:53;16.00;99.90
947;DHT22;460;48.734;9.152;2022-10-19T12:09:29;16.10;99.90
947;DHT22;460;48.734;9.152;2022-10-19T12:12:18;16.00;99.90
947;DHT22;460;48.734;9.152;2022-10-19T12:14:50;16.00;99.90
947;DHT22;460;48.734;9.152;2022-10-19T12:17:21;17.00;99.90
947;DHT22;460;48.734;9.152;2022-10-19T12:19:52;16.20;99.90
947;DHT22;460;48.734;9.152;2022-10-19T12:22:22;16.10;99.90
947;DHT22;460;48.734;9.152;2022-10-19T12:24:51;16.10;99.90
947;DHT22;460;48.734;9.152;2022-10-19T12:27:25;16.10;99.90
947;DHT22;460;48.734;9.152;2022-10-19T12:29:58;16.10;99.90
947;DHT22;460;48.734;9.152;2022-10-19T12:32:28;16.20;99.90
947;DHT22;460;48.734;9.152;2022-10-19T12:34:59;16.30;99.90
947;DHT22;460;48.734;9.152;2022-10-19T12:37:34;16.70;99.90
947;DHT22;460;48.734;9.152;2022-10-19T12:40:11;16.30;99.90
947;DHT22;460;48.734;9.152;2022-10-19T12:42:50;16.40;99.90
947;DHT22;460;48.734;9.152;2022-10-19T12:45:27;16.30;99.90
947;DHT22;460;48.734;9.152;2022-10-19T12:48:20;16.30;99.90
947;DHT22;460;48.734;9.152;2022-10-19T12:51:00;16.30;99.90
947;DHT22;460;48.734;9.152;2022-10-19T12:53:29;16.30;99.90
947;DHT22;460;48.734;9.152;2022-10-19T12:55:59;16.30;99.90
947;DHT22;460;48.734;9.152;2022-10-19T12:58:28;16.40;99.90
947;DHT22;460;48.734;9.152;2022-10-19T13:00:59;17.20;99.90
947;DHT22;460;48.734;9.152;2022-10-19T13:03:30;16.30;99.90
947;DHT22;460;48.734;9.152;2022-10-19T13:06:00;16.30;99.90
947;DHT22;460;48.734;9.152;2022-10-19T13:08:30;16.30;99.90
947;DHT22;460;48.734;9.152;2022-10-19T13:11:06;16.40;99.90
947;DHT22;460;48.734;9.152;2022-10-19T13:13:54;16.50;99.90
947;DHT22;460;48.734;9.152;2022-10-19T13:19:28;16.40;99.90
947;DHT22;460;48.734;9.152;2022-10-19T13:22:23;16.70;99.90
947;DHT22;460;48.734;9.152;2022-10-19T13:25:22;16.40;99.90
947;DHT22;460;48.734;9.152;2022-10-19T13:27:53;16.30;99.90
947;DHT22;460;48.734;9.152;2022-10-19T13:33:48;16.40;99.90
947;DHT22;460;48.734;9.152;2022-10-19T13:36:17;16.30;99.90
947;DHT22;460;48.734;9.152;2022-10-19T13:38:46;16.40;99.90
947;DHT22;460;48.734;9.152;2022-10-19T13:41:16;16.40;99.90
947;DHT22;460;48.734;9.152;2022-10-19T13:44:03;16.30;99.90
947;DHT22;460;48.734;9.152;2022-10-19T13:46:50;16.40;99.90
947;DHT22;460;48.734;9.152;2022-10-19T13:49:54;16.40;99.90
947;DHT22;460;48.734;9.152;2022-10-19T13:52:46;16.40;99.90
947;DHT22;460;48.734;9.152;2022-10-19T13:55:50;16.40;99.90
947;DHT22;460;48.734;9.152;2022-10-19T13:58:47;16.40;99.90
947;DHT22;460;48.734;9.152;2022-10-19T14:01:29;16.50;99.90
947;DHT22;460;48.734;9.152;2022-10-19T14:04:13;16.50;99.90
947;DHT22;460;48.734;9.152;2022-10-19T14:06:43;16.50;99.90
947;DHT22;460;48.734;9.152;2022-10-19T14:12:20;16.40;99.90
947;DHT22;460;48.734;9.152;2022-10-19T14:18:22;16.40;99.90
947;DHT22;460;48.734;9.152;2022-10-19T14:20:56;16.50;99.90
947;DHT22;460;48.734;9.152;2022-10-19T14:23:24;16.70;99.90
947;DHT22;460;48.734;9.152;2022-10-19T14:25:56;16.40;99.90
947;DHT22;460;48.734;9.152;2022-10-19T14:28:24;16.40;99.90
947;DHT22;460;48.734;9.152;2022-10-19T14:30:56;16.40;99.90
947;DHT22;460;48.734;9.152;2022-10-19T14:33:24;16.40;99.90
947;DHT22;460;48.734;9.152;2022-10-19T14:35:53;16.40;99.90
947;DHT22;460;48.734;9.152;2022-10-19T14:38:28;16.30;99.90
947;DHT22;460;48.734;9.152;2022-10-19T14:40:58;16.40;99.90
947;DHT22;460;48.734;9.152;2022-10-19T14:43:26;16.30;99.90
947;DHT22;460;48.734;9.152;2022-10-19T14:46:18;16.30;99.90
947;DHT22;460;48.734;9.152;2022-10-19T14:48:46;16.30;99.90
947;DHT22;460;48.734;9.152;2022-10-19T14:51:26;16.20;99.90
947;DHT22;460;48.734;9.152;2022-10-19T14:53:56;16.20;99.90
947;DHT22;460;48.734;9.152;2022-10-19T14:56:31;16.20;99.90
947;DHT22;460;48.734;9.152;2022-10-19T14:59:00;16.10;99.90
947;DHT22;460;48.734;9.152;2022-10-19T15:01:29;16.10;99.90
947;DHT22;460;48.734;9.152;2022-10-19T15:03:55;16.10;99.90
947;DHT22;460;48.734;9.152;2022-10-19T15:06:26;16.10;99.90
947;DHT22;460;48.734;9.152;2022-10-19T15:08:55;16.10;99.90
947;DHT22;460;48.734;9.152;2022-10-19T15:11:27;16.80;99.90
947;DHT22;460;48.734;9.152;2022-10-19T15:14:05;16.20;99.90
947;DHT22;460;48.734;9.152;2022-10-19T15:16:45;16.20;99.90
947;DHT22;460;48.734;9.152;2022-10-19T15:19:26;16.00;99.90
947;DHT22;460;48.734;9.152;2022-10-19T15:22:12;16.00;99.90
947;DHT22;460;48.734;9.152;2022-10-19T15:24:54;16.10;99.90
947;DHT22;460;48.734;9.152;2022-10-19T15:27:29;16.10;99.90
947;DHT22;460;48.734;9.152;2022-10-19T15:29:58;16.00;99.90
947;DHT22;460;48.734;9.152;2022-10-19T15:32:29;16.00;99.90
947;DHT22;460;48.734;9.152;2022-10-19T15:34:57;15.90;99.90
947;DHT22;460;48.734;9.152;2022-10-19T15:37:25;15.80;99.90
947;DHT22;460;48.734;9.152;2022-10-19T15:39:51;15.70;99.90
947;DHT22;460;48.734;9.152;2022-10-19T15:42:33;15.80;99.90
947;DHT22;460;48.734;9.152;2022-10-19T15:45:01;15.80;99.90
947;DHT22;460;48.734;9.152;2022-10-19T15:47:30;15.80;99.90
947;DHT22;460;48.734;9.152;2022-10-19T15:50:02;15.70;99.90
947;DHT22;460;48.734;9.152;2022-10-19T15:52:31;15.70;99.90
947;DHT22;460;48.734;9.152;2022-10-19T15:54:59;15.70;99.90
947;DHT22;460;48.734;9.152;2022-10-19T15:57:30;15.60;99.90
947;DHT22;460;48.734;9.152;2022-10-19T15:59:58;15.40;99.90
947;DHT22;460;48.734;9.152;2022-10-19T16:02:25;15.40;99.90
947;DHT22;460;48.734;9.152;2022-10-19T16:04:53;15.40;99.90
947;DHT22;460;48.734;9.152;2022-10-19T16:07:24;15.30;99.90
947;DHT22;460;48.734;9.152;2022-10-19T16:09:52;15.30;99.90
947;DHT22;460;48.734;9.152;2022-10-19T16:12:21;15.30;99.90
947;DHT22;460;48.734;9.152;2022-10-19T16:14:50;15.30;99.90
947;DHT22;460;48.734;9.152;2022-10-19T16:17:17;15.20;99.90
947;DHT22;460;48.734;9.152;2022-10-19T16:19:44;15.00;99.90
947;DHT22;460;48.734;9.152;2022-10-19T16:22:12;14.90;99.90
947;DHT22;460;48.734;9.152;2022-10-19T16:24:39;14.70;99.90
947;DHT22;460;48.734;9.152;2022-10-19T16:27:07;14.60;99.90
947;DHT22;460;48.734;9.152;2022-10-19T16:29:34;14.50;99.90
947;DHT22;460;48.734;9.152;2022-10-19T16:32:02;14.50;99.90
947;DHT22;460;48.734;9.152;2022-10-19T16:34:29;14.50;99.90
947;DHT22;460;48.734;9.152;2022-10-19T16:36:56;14.40;99.90
947;DHT22;460;48.734;9.152;2022-10-19T16:39:22;14.40;99.90
947;DHT22;460;48.734;9.152;2022-10-19T16:41:50;14.30;99.90
947;DHT22;460;48.734;9.152;2022-10-19T16:44:17;14.20;99.90
947;DHT22;460;48.734;9.152;2022-10-19T16:46:44;14.10;99.90
947;DHT22;460;48.734;9.152;2022-10-19T16:49:12;13.90;99.90
947;DHT22;460;48.734;9.152;2022-10-19T16:51:40;14.00;99.90
947;DHT22;460;48.734;9.152;2022-10-19T16:54:08;14.00;99.90
947;DHT22;460;48.734;9.152;2022-10-19T16:56:35;13.90;99.90
947;DHT22;460;48.734;9.152;2022-10-19T16:59:04;13.80;99.90
947;DHT22;460;48.734;9.152;2022-10-19T17:01:33;13.70;99.90
947;DHT22;460;48.734;9.152;2022-10-19T17:04:00;13.60;99.90
947;DHT22;460;48.734;9.152;2022-10-19T17:06:28;15.40;99.90
947;DHT22;460;48.734;9.152;2022-10-19T17:08:56;13.60;99.90
947;DHT22;460;48.734;9.152;2022-10-19T17:11:26;13.60;99.90
947;DHT22;460;48.734;9.152;2022-10-19T17:13:55;13.60;99.90
947;DHT22;460;48.734;9.152;2022-10-19T17:16:23;13.70;99.90
947;DHT22;460;48.734;9.152;2022-10-19T17:18:53;13.60;99.90
947;DHT22;460;48.734;9.152;2022-10-19T17:21:22;13.50;99.90
947;DHT22;460;48.734;9.152;2022-10-19T17:23:52;13.40;99.90
947;DHT22;460;48.734;9.152;2022-10-19T17:26:24;13.20;99.90
947;DHT22;460;48.734;9.152;2022-10-19T17:28:51;13.40;99.90
947;DHT22;460;48.734;9.152;2022-10-19T17:31:18;13.30;99.90
947;DHT22;460;48.734;9.152;2022-10-19T17:33:44;13.40;99.90
947;DHT22;460;48.734;9.152;2022-10-19T17:36:16;13.30;99.90